Time;durP1;ratioP1;P1;durP2;ratioP2;P2;SDS_P1;SDS_P2;PMS_P1;PMS_P2;Temp;Humidity;BMP_temperature;BMP_pressure;BME280_temperature;BME280_humidity;BME280_pressure;Samples;Min_cycle;Max_cycle;Signal;HPM_P1;HPM_P2
2021/01/20 00:02:08;;;;;;;5.68;4.65;;;10.50;80.30;;;;;;4924603;28;20111;-77
2021/01/20 00:04:33;;;;;;;6.63;4.55;;;10.50;80.30;;;;;;4940217;28;20093;-77
2021/01/20 00:06:59;;;;;;;7.10;5.47;;;10.50;80.20;;;;;;4923795;28;20047;-77
2021/01/20 00:09:26;;;;;;;6.45;4.63;;;10.50;80.30;;;;;;4924492;28;20035;-77
2021/01/20 00:11:51;;;;;;;6.45;4.40;;;10.50;80.30;;;;;;4963404;28;20141;-77
2021/01/20 00:14:18;;;;;;;6.88;5.03;;;10.50;80.30;;;;;;4956477;28;20058;-77
2021/01/20 00:16:44;;;;;;;5.80;4.55;;;10.40;80.20;;;;;;4956074;28;20031;-77
2021/01/20 00:19:11;;;;;;;7.05;5.10;;;10.40;80.30;;;;;;4967704;28;20046;-77
2021/01/20 00:21:37;;;;;;;7.45;4.95;;;10.40;80.30;;;;;;4939406;28;20472;-77
2021/01/20 00:24:04;;;;;;;6.82;4.55;;;10.40;80.30;;;;;;4955705;28;20034;-77
2021/01/20 00:26:30;;;;;;;6.07;4.85;;;10.40;80.20;;;;;;4958821;28;20027;-78
2021/01/20 00:28:56;;;;;;;5.68;4.35;;;10.40;80.20;;;;;;4939942;28;20130;-78
2021/01/20 00:31:21;;;;;;;5.38;4.30;;;10.40;80.30;;;;;;4940934;28;20063;-78
2021/01/20 00:33:47;;;;;;;6.22;4.32;;;10.40;80.20;;;;;;4929519;28;20077;-78
2021/01/20 00:36:14;;;;;;;6.32;5.00;;;10.40;80.30;;;;;;4940179;28;20073;-78
2021/01/20 00:38:39;;;;;;;6.50;4.53;;;10.40;80.30;;;;;;4955530;28;20027;-78
2021/01/20 00:41:05;;;;;;;6.10;4.68;;;10.40;80.30;;;;;;4908673;28;20049;-78
2021/01/20 00:43:31;;;;;;;6.32;4.88;;;10.40;80.20;;;;;;4939558;28;20030;-79
2021/01/20 00:46:00;;;;;;;7.03;4.90;;;10.40;80.20;;;;;;4956397;28;20023;-78
2021/01/20 00:48:26;;;;;;;6.47;4.65;;;10.40;80.20;;;;;;4939316;28;20045;-78
2021/01/20 00:50:56;;;;;;;6.68;4.78;;;10.40;80.20;;;;;;4939763;28;20038;-79
2021/01/20 00:53:22;;;;;;;6.13;4.47;;;10.40;80.30;;;;;;4944307;28;20041;-78
2021/01/20 00:55:48;;;;;;;5.80;4.68;;;10.40;80.20;;;;;;4940061;28;20015;-78
2021/01/20 00:58:15;;;;;;;5.45;4.20;;;10.30;80.20;;;;;;4908756;28;20069;-78
2021/01/20 01:00:41;;;;;;;6.05;4.30;;;10.40;80.30;;;;;;4939415;28;20530;-78
2021/01/20 01:03:07;;;;;;;6.75;4.80;;;10.30;80.20;;;;;;4957627;28;20487;-78
2021/01/20 01:05:34;;;;;;;6.05;4.60;;;10.30;80.20;;;;;;4960466;28;21312;-79
2021/01/20 01:08:03;;;;;;;6.72;4.75;;;10.30;80.20;;;;;;4950583;28;20388;-76
2021/01/20 01:10:37;;;;;;;6.25;4.60;;;10.30;80.20;;;;;;4955176;28;20042;-76
2021/01/20 01:13:07;;;;;;;5.60;4.05;;;10.30;80.20;;;;;;4960938;28;20129;-76
2021/01/20 01:15:37;;;;;;;6.45;4.70;;;10.30;80.20;;;;;;4943388;28;20035;-76
2021/01/20 01:18:03;;;;;;;7.05;4.85;;;10.30;80.20;;;;;;4955798;28;20030;-76
2021/01/20 01:20:29;;;;;;;6.50;4.57;;;10.30;80.20;;;;;;4907610;28;20115;-77
2021/01/20 01:22:59;;;;;;;5.47;4.10;;;10.30;80.20;;;;;;4939465;28;20035;-77
2021/01/20 01:25:25;;;;;;;5.50;3.95;;;10.30;80.20;;;;;;4955119;28;20110;-77
2021/01/20 01:27:51;;;;;;;6.10;4.25;;;10.30;80.20;;;;;;4923967;28;20034;-76
2021/01/20 01:30:19;;;;;;;6.18;3.83;;;10.20;80.20;;;;;;4955411;28;20480;-76
2021/01/20 01:32:45;;;;;;;6.70;4.13;;;10.20;80.20;;;;;;4964523;28;20066;-77
2021/01/20 01:35:22;;;;;;;5.32;4.00;;;10.20;80.20;;;;;;4902792;28;20035;-76
2021/01/20 01:37:57;;;;;;;5.68;4.25;;;10.20;80.20;;;;;;4914323;28;20039;-77
2021/01/20 01:40:37;;;;;;;5.18;3.70;;;10.20;80.20;;;;;;4944651;28;20035;-77
2021/01/20 01:43:26;;;;;;;5.43;3.78;;;10.20;80.20;;;;;;4961210;28;20403;-77
2021/01/20 01:46:10;;;;;;;5.32;3.88;;;10.20;80.20;;;;;;4972625;28;20042;-76
2021/01/20 01:48:41;;;;;;;5.28;4.13;;;10.20;80.20;;;;;;4945353;28;20035;-77
2021/01/20 01:51:07;;;;;;;5.22;3.97;;;10.20;80.20;;;;;;4943022;28;20078;-77
2021/01/20 01:53:41;;;;;;;6.72;4.10;;;10.20;80.20;;;;;;4932020;28;20037;-77
2021/01/20 01:56:14;;;;;;;5.55;4.15;;;10.10;80.20;;;;;;4922824;28;20023;-77
2021/01/20 01:58:54;;;;;;;5.13;3.70;;;10.10;80.20;;;;;;4944601;28;20026;-77
2021/01/20 02:01:22;;;;;;;4.75;3.60;;;10.10;80.20;;;;;;4942624;28;20042;-78
2021/01/20 02:03:53;;;;;;;5.85;3.63;;;10.20;80.20;;;;;;4928548;28;20066;-78
2021/01/20 02:06:23;;;;;;;5.35;3.95;;;10.10;80.20;;;;;;4920945;29;20047;-78
2021/01/20 02:08:58;;;;;;;5.50;4.17;;;10.20;80.20;;;;;;4922261;29;20103;-78
2021/01/20 02:12:08;;;;;;;5.43;3.72;;;10.10;80.20;;;;;;4944751;29;20042;-77
2021/01/20 02:15:16;;;;;;;5.60;3.53;;;10.10;80.30;;;;;;4924966;29;20059;-77
2021/01/20 02:17:47;;;;;;;5.22;3.60;;;10.10;80.20;;;;;;4935811;29;20027;-76
2021/01/20 02:20:31;;;;;;;5.05;3.55;;;10.10;80.10;;;;;;4936161;29;20058;-76
2021/01/20 02:23:02;;;;;;;5.45;3.95;;;10.10;80.30;;;;;;4936118;29;20036;-77
2021/01/20 02:26:19;;;;;;;5.00;3.25;;;10.10;80.20;;;;;;4910338;29;20044;-77
2021/01/20 02:29:35;;;;;;;4.72;3.22;;;10.10;80.20;;;;;;4934685;29;20118;-77
2021/01/20 02:32:22;;;;;;;4.28;3.03;;;10.00;80.20;;;;;;4938943;29;20091;-77
2021/01/20 02:34:50;;;;;;;4.43;3.30;;;10.00;80.10;;;;;;4935596;29;20035;-77
2021/01/20 02:37:17;;;;;;;5.45;3.67;;;10.00;80.20;;;;;;4920176;29;20536;-76
2021/01/20 02:40:11;;;;;;;5.72;3.63;;;10.00;80.20;;;;;;4935174;29;20032;-76
2021/01/20 02:43:03;;;;;;;4.40;3.15;;;10.00;80.20;;;;;;4901915;29;20548;-77
2021/01/20 02:45:48;;;;;;;4.60;3.38;;;10.00;80.20;;;;;;4922485;29;20119;-76
2021/01/20 02:48:15;;;;;;;4.70;3.30;;;10.00;80.20;;;;;;4919020;29;20580;-77
2021/01/20 02:50:41;;;;;;;5.30;3.83;;;10.00;80.20;;;;;;4935529;29;20035;-77
2021/01/20 02:53:18;;;;;;;4.82;3.53;;;10.00;80.20;;;;;;4919478;29;20036;-76
2021/01/20 02:56:20;;;;;;;5.30;3.10;;;10.00;80.30;;;;;;4919107;29;20039;-76
2021/01/20 02:59:02;;;;;;;5.00;3.33;;;10.00;80.20;;;;;;4922497;28;20035;-76
2021/01/20 03:01:56;;;;;;;4.47;3.10;;;10.00;80.20;;;;;;4900828;29;20480;-77
2021/01/20 03:04:23;;;;;;;4.65;3.45;;;10.00;80.20;;;;;;4936691;29;20047;-77
2021/01/20 03:06:52;;;;;;;5.43;3.47;;;10.00;80.20;;;;;;4941563;28;20054;-77
2021/01/20 03:09:19;;;;;;;4.70;3.33;;;10.00;80.30;;;;;;4919572;29;20095;-76
2021/01/20 03:11:52;;;;;;;4.25;3.10;;;10.00;80.30;;;;;;4916419;29;20043;-76
2021/01/20 03:14:23;;;;;;;4.80;3.60;;;10.00;80.30;;;;;;4935268;29;20472;-78
2021/01/20 03:16:49;;;;;;;4.80;3.08;;;10.00;80.90;;;;;;4932490;29;20055;-78
2021/01/20 03:19:14;;;;;;;4.45;3.50;;;10.00;80.20;;;;;;4935137;29;20662;-76
2021/01/20 03:21:40;;;;;;;4.78;3.10;;;10.00;80.20;;;;;;4919251;29;20126;-76
2021/01/20 03:24:06;;;;;;;5.13;3.42;;;10.00;80.20;;;;;;4935871;29;20046;-76
2021/01/20 03:26:32;;;;;;;4.68;3.40;;;10.00;80.20;;;;;;4935516;29;20078;-77
2021/01/20 03:28:58;;;;;;;5.28;3.55;;;10.00;80.20;;;;;;4918808;29;20531;-77
2021/01/20 03:31:24;;;;;;;6.53;3.97;;;10.00;80.20;;;;;;4916170;29;20037;-76
2021/01/20 03:33:49;;;;;;;4.55;3.35;;;10.00;80.20;;;;;;4929192;29;20048;-78
2021/01/20 03:36:15;;;;;;;5.18;3.53;;;10.00;80.20;;;;;;4916249;29;20120;-77
2021/01/20 03:38:41;;;;;;;5.55;3.53;;;10.00;80.20;;;;;;4910668;29;20075;-76
2021/01/20 03:41:06;;;;;;;4.15;3.33;;;10.00;80.30;;;;;;4916000;29;20105;-76
2021/01/20 03:43:32;;;;;;;5.57;3.50;;;10.00;80.20;;;;;;4927696;29;20048;-77
2021/01/20 03:45:58;;;;;;;5.25;3.50;;;10.00;80.20;;;;;;4918829;29;20032;-76
2021/01/20 03:48:23;;;;;;;4.20;2.95;;;10.00;80.20;;;;;;4934350;29;20052;-76
2021/01/20 03:50:49;;;;;;;5.63;3.60;;;10.00;80.20;;;;;;4918859;29;20507;-77
2021/01/20 03:53:15;;;;;;;5.57;3.35;;;9.90;80.20;;;;;;4934257;29;20102;-77
2021/01/20 03:55:40;;;;;;;5.47;3.30;;;10.00;80.30;;;;;;4934610;29;20025;-77
2021/01/20 03:58:06;;;;;;;4.75;3.45;;;9.90;80.20;;;;;;4918468;29;20477;-76
2021/01/20 04:00:32;;;;;;;5.03;3.22;;;9.90;80.20;;;;;;4934066;29;20036;-76
2021/01/20 04:02:57;;;;;;;3.70;2.80;;;9.90;80.20;;;;;;4916259;29;20036;-78
2021/01/20 04:05:33;;;;;;;5.53;3.47;;;10.00;80.20;;;;;;4910333;28;20072;-77
2021/01/20 04:07:59;;;;;;;4.40;3.05;;;9.90;80.20;;;;;;4956811;28;20118;-76
2021/01/20 04:10:25;;;;;;;4.68;3.38;;;9.90;80.20;;;;;;4938018;28;20042;-77
2021/01/20 04:12:51;;;;;;;4.95;3.25;;;9.90;80.20;;;;;;4940002;28;20038;-77
2021/01/20 04:15:17;;;;;;;5.82;3.50;;;9.90;80.20;;;;;;4924677;28;20146;-77
2021/01/20 04:17:43;;;;;;;5.22;3.42;;;9.90;80.20;;;;;;4940404;28;20031;-77
2021/01/20 04:20:09;;;;;;;4.28;3.10;;;10.00;80.20;;;;;;4956068;28;20022;-77
2021/01/20 04:22:35;;;;;;;4.30;3.17;;;9.90;80.20;;;;;;4924896;28;20106;-77
2021/01/20 04:25:01;;;;;;;4.65;3.30;;;9.90;80.20;;;;;;4925086;28;20476;-77
2021/01/20 04:27:27;;;;;;;4.13;2.92;;;9.90;80.20;;;;;;4929947;28;20102;-76
2021/01/20 04:29:52;;;;;;;4.80;3.67;;;9.90;80.20;;;;;;4955834;28;20054;-77
2021/01/20 04:32:18;;;;;;;4.50;3.17;;;9.90;80.20;;;;;;4928061;28;20058;-77
2021/01/20 04:34:44;;;;;;;4.18;3.15;;;10.00;80.20;;;;;;4949894;28;20122;-76
2021/01/20 04:37:10;;;;;;;4.35;2.97;;;10.00;80.20;;;;;;4943062;28;20038;-77
2021/01/20 04:39:36;;;;;;;4.40;3.10;;;9.90;80.20;;;;;;4951138;28;20035;-77
2021/01/20 04:42:03;;;;;;;3.63;2.92;;;9.90;80.20;;;;;;4955176;28;20117;-77
2021/01/20 04:44:29;;;;;;;4.85;3.22;;;9.90;80.20;;;;;;4956691;28;20110;-77
2021/01/20 04:46:56;;;;;;;4.65;3.00;;;9.90;80.20;;;;;;4939530;28;20061;-77
2021/01/20 04:49:23;;;;;;;4.30;2.80;;;9.90;80.20;;;;;;4972992;28;20031;-77
2021/01/20 04:51:51;;;;;;;4.05;2.85;;;10.00;80.20;;;;;;4923695;28;20059;-79
2021/01/20 04:54:18;;;;;;;4.85;3.08;;;10.00;80.20;;;;;;4969140;28;20023;-77
2021/01/20 04:56:44;;;;;;;4.90;3.28;;;9.90;80.20;;;;;;4939810;28;20065;-78
2021/01/20 04:59:10;;;;;;;4.10;2.60;;;9.90;80.20;;;;;;4939604;28;20046;-78
2021/01/20 05:01:36;;;;;;;5.60;3.20;;;9.90;80.20;;;;;;4931287;28;20027;-77
2021/01/20 05:04:03;;;;;;;4.45;3.03;;;9.90;80.20;;;;;;4958383;28;20042;-78
2021/01/20 05:06:30;;;;;;;3.40;2.58;;;9.90;80.20;;;;;;4953310;28;20058;-78
2021/01/20 05:08:57;;;;;;;4.07;2.50;;;9.90;80.20;;;;;;4940015;28;20475;-77
2021/01/20 05:11:42;;;;;;;4.32;2.90;;;9.90;80.20;;;;;;4957696;28;20492;-77
2021/01/20 05:14:11;;;;;;;;;;;9.90;80.30;;;;;;4948614;28;20034;-76
2021/01/20 05:16:37;;;;;;;3.80;2.72;;;9.90;80.10;;;;;;4943744;28;19906;-77
2021/01/20 05:19:03;;;;;;;4.53;2.75;;;9.90;79.90;;;;;;4959359;28;20030;-77
2021/01/20 05:21:29;;;;;;;4.03;2.63;;;9.90;80.10;;;;;;4958941;28;20446;-77
2021/01/20 05:24:20;;;;;;;3.85;2.70;;;9.90;80.20;;;;;;4943242;28;20038;-76
2021/01/20 05:26:46;;;;;;;3.90;2.97;;;9.90;80.30;;;;;;4974501;28;20046;-76
2021/01/20 05:29:13;;;;;;;3.47;2.78;;;9.90;80.20;;;;;;4943100;28;20038;-76
2021/01/20 05:31:39;;;;;;;4.22;2.70;;;9.90;80.20;;;;;;4958302;28;20050;-77
2021/01/20 05:34:20;;;;;;;3.60;2.63;;;9.90;80.20;;;;;;4976466;28;20023;-77
2021/01/20 05:37:01;;;;;;;4.00;2.80;;;9.90;80.20;;;;;;4968655;28;20022;-77
2021/01/20 05:39:27;;;;;;;3.88;2.85;;;9.90;80.30;;;;;;4959091;28;20026;-77
2021/01/20 05:42:08;;;;;;;4.03;2.92;;;10.00;80.20;;;;;;4927617;28;20054;-76
2021/01/20 05:44:35;;;;;;;3.70;2.50;;;9.90;80.30;;;;;;4947207;28;20039;-76
2021/01/20 05:47:07;;;;;;;4.00;2.80;;;10.00;80.20;;;;;;4942552;28;20054;-78
2021/01/20 05:49:33;;;;;;;4.15;2.60;;;10.00;80.40;;;;;;4962121;28;20033;-75
2021/01/20 05:52:00;;;;;;;3.83;2.60;;;10.00;80.20;;;;;;4958011;28;20043;-75
2021/01/20 05:54:36;;;;;;;3.92;2.55;;;10.00;80.20;;;;;;4975313;28;20062;-75
2021/01/20 05:57:34;;;;;;;4.00;2.63;;;10.00;80.30;;;;;;4943532;28;20018;-75
2021/01/20 06:00:13;;;;;;;3.53;2.63;;;9.90;80.40;;;;;;4910664;28;20546;-75
2021/01/20 06:02:40;;;;;;;3.75;2.40;;;10.00;80.30;;;;;;4975999;28;20045;-75
2021/01/20 06:05:08;;;;;;;3.42;2.50;;;10.00;80.90;;;;;;4953186;28;20023;-75
2021/01/20 06:07:37;;;;;;;4.13;2.83;;;10.00;80.30;;;;;;4945696;28;20047;-75
2021/01/20 06:10:05;;;;;;;3.65;2.75;;;10.00;80.20;;;;;;4941685;28;20489;-75
2021/01/20 06:12:31;;;;;;;3.65;2.60;;;10.00;80.20;;;;;;4944908;28;20031;-75
2021/01/20 06:14:58;;;;;;;3.67;2.58;;;10.00;80.20;;;;;;4974680;28;20098;-76
2021/01/20 06:17:47;;;;;;;4.70;2.97;;;10.00;80.20;;;;;;4917652;28;20027;-75
2021/01/20 06:20:16;;;;;;;5.15;2.70;;;10.00;80.40;;;;;;4945504;28;20030;-76
2021/01/20 06:22:51;;;;;;;3.70;2.70;;;10.00;80.20;;;;;;4982031;28;20080;-77
2021/01/20 06:25:36;;;;;;;4.25;2.72;;;10.00;80.30;;;;;;4956816;28;20030;-76
2021/01/20 06:28:08;;;;;;;4.33;2.53;;;10.00;80.40;;;;;;4967464;28;20038;-76
2021/01/20 06:30:42;;;;;;;3.17;2.50;;;10.00;80.20;;;;;;4956543;28;20109;-76
2021/01/20 06:33:11;;;;;;;3.57;2.60;;;10.00;80.20;;;;;;4946619;29;20381;-75
2021/01/20 06:35:44;;;;;;;3.13;2.35;;;10.00;80.20;;;;;;4949827;28;20034;-76
2021/01/20 06:38:28;;;;;;;4.00;2.53;;;10.00;80.30;;;;;;4975491;28;20026;-76
2021/01/20 06:40:58;;;;;;;3.33;2.40;;;10.00;81.00;;;;;;4941145;28;20019;-75
2021/01/20 06:43:44;;;;;;;3.08;2.33;;;10.00;80.20;;;;;;4975697;28;20027;-76
2021/01/20 06:46:19;;;;;;;3.85;2.58;;;10.00;80.30;;;;;;4962017;28;20077;-75
2021/01/20 06:48:54;;;;;;;3.30;2.38;;;10.00;80.20;;;;;;4957862;28;20039;-75
2021/01/20 06:51:20;;;;;;;;;;;10.00;80.30;;;;;;4958110;28;20371;-76
2021/01/20 06:54:01;;;;;;;2.90;2.25;;;10.00;80.20;;;;;;4941888;28;19917;-76
2021/01/20 06:56:31;;;;;;;4.45;2.33;;;10.00;80.20;;;;;;4947307;28;20072;-76
2021/01/20 06:59:16;;;;;;;3.38;2.38;;;10.00;80.20;;;;;;4974048;28;20027;-76
2021/01/20 07:01:50;;;;;;;3.70;2.40;;;10.00;80.40;;;;;;4969287;28;20027;-77
2021/01/20 07:04:38;;;;;;;4.57;2.53;;;10.00;80.20;;;;;;4940733;28;20034;-76
2021/01/20 07:07:05;;;;;;;3.53;2.40;;;10.00;80.40;;;;;;4974586;28;20290;-76
2021/01/20 07:09:49;;;;;;;3.50;2.38;;;10.00;80.20;;;;;;4941266;28;20501;-75
2021/01/20 07:12:22;;;;;;;3.72;2.42;;;10.00;80.40;;;;;;4974259;28;20039;-76
2021/01/20 07:14:55;;;;;;;3.13;2.08;;;10.00;80.30;;;;;;4974391;28;20030;-76
2021/01/20 07:17:22;;;;;;;2.88;2.15;;;10.00;80.30;;;;;;4973992;28;20078;-75
2021/01/20 07:19:49;;;;;;;2.97;2.20;;;10.00;80.30;;;;;;4941358;28;20031;-76
2021/01/20 07:22:16;;;;;;;3.97;2.40;;;10.00;80.30;;;;;;4956303;28;20078;-75
2021/01/20 07:24:42;;;;;;;3.42;2.33;;;10.00;80.30;;;;;;4924468;28;20101;-76
2021/01/20 07:27:10;;;;;;;3.90;2.42;;;10.00;80.30;;;;;;4956913;28;20027;-75
2021/01/20 07:29:37;;;;;;;3.10;2.45;;;10.10;80.30;;;;;;4957491;28;20022;-75
2021/01/20 07:32:04;;;;;;;2.58;2.20;;;10.00;80.30;;;;;;4956887;28;20035;-75
2021/01/20 07:34:43;;;;;;;2.97;1.95;;;10.10;80.30;;;;;;4956562;28;20117;-75
2021/01/20 07:37:13;;;;;;;2.97;2.10;;;10.10;80.40;;;;;;4987868;28;20064;-75
2021/01/20 07:39:40;;;;;;;2.83;1.92;;;10.10;80.30;;;;;;4957160;28;20019;-76
2021/01/20 07:42:06;;;;;;;2.30;2.03;;;10.10;80.30;;;;;;4974314;28;20174;-77
2021/01/20 07:44:33;;;;;;;3.83;2.38;;;10.10;80.30;;;;;;4941293;28;20039;-75
2021/01/20 07:47:08;;;;;;;2.65;2.15;;;10.10;80.30;;;;;;4940862;28;20045;-76
2021/01/20 07:49:35;;;;;;;3.38;2.45;;;10.10;80.40;;;;;;4965922;28;20078;-76
2021/01/20 07:52:06;;;;;;;4.25;2.30;;;10.10;80.30;;;;;;4964117;28;20034;-75
2021/01/20 07:54:39;;;;;;;2.78;2.10;;;10.10;80.30;;;;;;4972715;28;20030;-75
2021/01/20 07:57:07;;;;;;;2.78;2.17;;;10.10;80.30;;;;;;4973902;28;20619;-75
2021/01/20 07:59:33;;;;;;;2.33;2.00;;;10.10;80.30;;;;;;4956496;28;20027;-75
2021/01/20 08:02:18;;;;;;;2.97;2.13;;;10.10;80.20;;;;;;4956514;28;20376;-75
2021/01/20 08:04:43;;;;;;;2.67;2.20;;;10.10;81.00;;;;;;4940260;28;20037;-75
2021/01/20 08:07:13;;;;;;;2.58;1.88;;;10.10;80.20;;;;;;4936998;29;20051;-77
2021/01/20 08:09:40;;;;;;;2.35;2.00;;;10.10;80.20;;;;;;4922066;29;20035;-75
2021/01/20 08:12:08;;;;;;;3.15;2.20;;;10.10;80.20;;;;;;4939997;29;20040;-75
2021/01/20 08:14:36;;;;;;;4.20;2.30;;;10.20;80.30;;;;;;4935841;29;20114;-76
2021/01/20 08:17:03;;;;;;;2.30;1.92;;;10.10;80.20;;;;;;4927471;29;20032;-77
2021/01/20 08:19:31;;;;;;;2.60;1.83;;;10.10;80.20;;;;;;4919490;29;20476;-77
2021/01/20 08:21:58;;;;;;;2.80;1.92;;;10.10;80.20;;;;;;4941382;29;20035;-78
2021/01/20 08:24:24;;;;;;;3.28;2.10;;;10.20;80.30;;;;;;4945415;29;20445;-76
2021/01/20 08:26:57;;;;;;;3.35;2.65;;;10.10;80.20;;;;;;4900981;29;20019;-76
2021/01/20 08:29:24;;;;;;;2.47;1.85;;;10.20;80.30;;;;;;4927258;29;20059;-77
2021/01/20 08:32:09;;;;;;;2.88;1.92;;;10.20;80.30;;;;;;4923176;29;20063;-77
2021/01/20 08:34:40;;;;;;;2.15;1.83;;;10.20;80.40;;;;;;4934832;29;20041;-77
2021/01/20 08:37:27;;;;;;;4.70;2.25;;;10.20;80.30;;;;;;4937430;29;20023;-77
2021/01/20 08:39:52;;;;;;;2.33;1.80;;;10.20;80.30;;;;;;4913793;29;20043;-77
2021/01/20 08:42:22;;;;;;;2.63;1.85;;;10.20;80.30;;;;;;4917961;29;20038;-78
2021/01/20 08:45:30;;;;;;;2.40;1.88;;;10.20;80.30;;;;;;4934728;29;20063;-77
2021/01/20 08:48:05;;;;;;;3.03;1.85;;;10.20;80.40;;;;;;4929769;29;20027;-77
2021/01/20 08:50:42;;;;;;;3.03;1.88;;;10.20;80.20;;;;;;4933242;29;20397;-77
2021/01/20 08:53:13;;;;;;;2.45;1.88;;;10.20;80.30;;;;;;4943190;29;20126;-77
2021/01/20 08:56:00;;;;;;;2.45;1.85;;;10.20;80.30;;;;;;4934192;28;20038;-78
2021/01/20 08:58:33;;;;;;;2.60;1.90;;;10.20;80.30;;;;;;4913878;29;20127;-77
2021/01/20 09:01:27;;;;;;;2.70;1.90;;;10.20;80.30;;;;;;4912726;29;20035;-76
2021/01/20 09:03:57;;;;;;;2.47;1.85;;;10.30;80.50;;;;;;4911171;29;20032;-75
2021/01/20 09:06:24;;;;;;;2.92;2.03;;;10.30;80.40;;;;;;4952214;28;20075;-76
2021/01/20 09:08:50;;;;;;;2.25;1.80;;;10.30;80.30;;;;;;4952853;29;20479;-76
2021/01/20 09:11:16;;;;;;;2.10;1.83;;;10.30;80.40;;;;;;4952535;29;20049;-75
2021/01/20 09:13:41;;;;;;;2.70;2.00;;;10.30;80.40;;;;;;4905173;29;20078;-77
2021/01/20 09:16:07;;;;;;;2.55;2.00;;;10.30;80.40;;;;;;4953179;29;20035;-76
2021/01/20 09:18:33;;;;;;;3.30;2.15;;;10.30;80.30;;;;;;4949905;29;20499;-75
2021/01/20 09:21:02;;;;;;;2.50;1.83;;;10.30;80.30;;;;;;4952755;29;20035;-76
2021/01/20 09:23:28;;;;;;;2.33;2.03;;;10.30;80.40;;;;;;4952475;29;20078;-75
2021/01/20 09:25:54;;;;;;;2.75;1.98;;;10.30;80.30;;;;;;4937008;29;20024;-75
2021/01/20 09:28:21;;;;;;;2.58;2.00;;;10.40;80.30;;;;;;4936513;29;20046;-76
2021/01/20 09:30:47;;;;;;;2.28;1.90;;;10.40;80.30;;;;;;4936644;29;20027;-75
2021/01/20 09:33:13;;;;;;;2.58;1.95;;;10.40;80.30;;;;;;4909568;29;20059;-75
2021/01/20 09:35:39;;;;;;;2.78;2.13;;;10.40;80.30;;;;;;4927441;29;20835;-75
2021/01/20 09:38:05;;;;;;;2.05;1.85;;;10.40;80.30;;;;;;4953874;29;20046;-76
2021/01/20 09:40:31;;;;;;;3.13;2.10;;;10.40;80.30;;;;;;4934317;29;20122;-75
2021/01/20 09:42:57;;;;;;;2.80;2.00;;;10.40;80.20;;;;;;4909182;29;20138;-76
2021/01/20 09:45:29;;;;;;;2.95;1.75;;;10.40;80.20;;;;;;4953497;28;20027;-77
2021/01/20 09:48:02;;;;;;;2.50;1.80;;;10.40;80.20;;;;;;4952400;29;20034;-75
2021/01/20 09:50:33;;;;;;;2.45;1.83;;;10.50;80.30;;;;;;4942390;29;20038;-76
2021/01/20 09:52:59;;;;;;;2.15;1.70;;;10.50;80.20;;;;;;4933058;29;20032;-76
2021/01/20 09:55:25;;;;;;;2.13;1.80;;;10.50;80.20;;;;;;4960599;28;20460;-76
2021/01/20 09:57:50;;;;;;;2.03;1.75;;;10.50;80.20;;;;;;4944340;28;20024;-76
2021/01/20 10:00:16;;;;;;;2.75;1.90;;;10.50;80.20;;;;;;4939806;29;20023;-75
2021/01/20 10:02:42;;;;;;;2.70;2.00;;;10.50;80.20;;;;;;4955288;29;20070;-76
2021/01/20 10:05:10;;;;;;;2.13;1.70;;;10.60;80.30;;;;;;4955288;29;20535;-76
2021/01/20 10:07:37;;;;;;;2.45;1.80;;;10.50;80.20;;;;;;4973562;28;20043;-76
2021/01/20 10:10:09;;;;;;;1.95;1.70;;;10.60;80.30;;;;;;4958441;28;20097;-76
2021/01/20 10:12:35;;;;;;;2.10;1.60;;;10.60;80.30;;;;;;4942249;28;20108;-75
2021/01/20 10:15:01;;;;;;;2.42;1.60;;;10.60;80.20;;;;;;4958235;28;20030;-76
2021/01/20 10:17:27;;;;;;;1.80;1.70;;;10.60;80.20;;;;;;4939556;29;20035;-76
2021/01/20 10:19:52;;;;;;;2.20;1.80;;;10.60;80.20;;;;;;4955855;28;20034;-76
2021/01/20 10:22:19;;;;;;;2.90;1.83;;;10.70;80.20;;;;;;4942668;28;20034;-76
2021/01/20 10:24:45;;;;;;;2.08;1.80;;;10.70;80.20;;;;;;4942480;28;20491;-77
2021/01/20 10:27:11;;;;;;;2.58;1.67;;;10.70;80.20;;;;;;4957957;28;20035;-75
2021/01/20 10:33:39;;;;;;;1.60;1.50;;;10.70;80.30;;;;;;4911233;29;20055;-77
2021/01/20 10:36:05;;;;;;;2.10;1.60;;;10.80;80.00;;;;;;4902931;29;20032;-78
2021/01/20 10:38:30;;;;;;;2.25;1.70;;;10.80;80.20;;;;;;4972941;28;20054;-75
2021/01/20 10:40:57;;;;;;;2.03;1.60;;;10.80;80.20;;;;;;4957316;28;20476;-76
2021/01/20 10:43:23;;;;;;;2.28;1.65;;;10.80;80.20;;;;;;4942182;28;20125;-75
2021/01/20 10:45:48;;;;;;;2.42;1.88;;;10.80;80.20;;;;;;4957952;28;20166;-76
2021/01/20 10:48:14;;;;;;;2.33;1.83;;;10.80;80.10;;;;;;4957767;28;20068;-75
2021/01/20 10:50:40;;;;;;;1.63;1.50;;;10.80;80.10;;;;;;4975580;28;20038;-76
2021/01/20 10:53:05;;;;;;;1.60;1.50;;;10.90;80.20;;;;;;4974676;28;20394;-76
2021/01/20 10:55:31;;;;;;;1.98;1.50;;;10.90;80.10;;;;;;4958016;28;20174;-76
2021/01/20 10:57:57;;;;;;;2.45;1.48;;;10.90;80.10;;;;;;4939495;28;20030;-76
2021/01/20 11:00:23;;;;;;;2.40;1.65;;;10.90;80.10;;;;;;4957461;28;20039;-76
2021/01/20 11:02:49;;;;;;;1.98;1.55;;;11.00;80.10;;;;;;4974375;28;20035;-76
2021/01/20 11:05:14;;;;;;;1.70;1.50;;;11.00;80.10;;;;;;4941580;28;20037;-75
2021/01/20 11:07:40;;;;;;;2.08;1.45;;;11.00;80.10;;;;;;4957040;28;20057;-76
2021/01/20 11:10:07;;;;;;;1.65;1.52;;;11.00;80.10;;;;;;4941122;28;20038;-75
2021/01/20 11:12:32;;;;;;;2.20;1.52;;;11.00;80.10;;;;;;4941203;28;20120;-76
2021/01/20 11:14:58;;;;;;;1.65;1.50;;;11.00;80.10;;;;;;4939900;28;20349;-77
2021/01/20 11:17:24;;;;;;;2.28;1.80;;;11.00;80.00;;;;;;4925750;28;20038;-76
2021/01/20 11:19:49;;;;;;;2.22;1.63;;;11.10;80.10;;;;;;4940982;28;20526;-75
2021/01/20 11:22:16;;;;;;;3.33;1.67;;;11.10;80.10;;;;;;4939216;28;20043;-76
2021/01/20 11:24:41;;;;;;;2.45;1.60;;;11.10;80.00;;;;;;4955822;28;20093;-75
2021/01/20 11:27:07;;;;;;;2.60;1.60;;;11.10;80.00;;;;;;4924548;28;20030;-75
2021/01/20 11:29:33;;;;;;;1.75;1.58;;;11.10;80.00;;;;;;4957552;28;20530;-75
2021/01/20 11:31:58;;;;;;;1.55;1.45;;;11.10;80.00;;;;;;4925001;28;20077;-77
2021/01/20 11:34:24;;;;;;;2.22;1.52;;;11.20;80.00;;;;;;4938061;29;20114;-75
2021/01/20 11:36:50;;;;;;;2.42;1.60;;;11.20;80.00;;;;;;4941057;28;20031;-76
2021/01/20 11:39:16;;;;;;;2.33;1.65;;;11.20;80.00;;;;;;4950943;29;20483;-75
2021/01/20 11:41:42;;;;;;;2.22;1.63;;;11.20;80.00;;;;;;4908631;29;20044;-75
2021/01/20 11:44:07;;;;;;;2.97;1.70;;;11.20;80.00;;;;;;4953671;28;20035;-74
2021/01/20 11:46:33;;;;;;;1.65;1.50;;;11.20;79.90;;;;;;4925426;28;20030;-75
2021/01/20 11:49:07;;;;;;;1.58;1.48;;;11.30;80.00;;;;;;4940841;28;20089;-75
2021/01/20 11:51:36;;;;;;;1.73;1.40;;;11.20;79.90;;;;;;4950050;28;20264;-76
2021/01/20 11:54:02;;;;;;;1.73;1.40;;;11.30;79.90;;;;;;4979622;28;20105;-75
2021/01/20 11:56:28;;;;;;;2.38;1.85;;;11.30;79.90;;;;;;4935016;29;20614;-75
2021/01/20 11:58:54;;;;;;;2.85;1.65;;;11.30;79.90;;;;;;4911438;28;20492;-75
2021/01/20 12:01:22;;;;;;;3.53;1.85;;;11.30;79.90;;;;;;4937494;28;20031;-76
2021/01/20 12:03:49;;;;;;;2.00;1.50;;;11.40;79.90;;;;;;4935308;29;20102;-77
2021/01/20 12:06:15;;;;;;;1.60;1.50;;;11.40;79.90;;;;;;4928767;29;20516;-76
2021/01/20 12:08:41;;;;;;;2.35;1.42;;;11.30;79.80;;;;;;4931733;29;20044;-76
2021/01/20 12:11:06;;;;;;;1.67;1.50;;;11.40;79.90;;;;;;4915473;29;20036;-78
2021/01/20 12:13:32;;;;;;;1.75;1.55;;;11.40;79.90;;;;;;4930729;29;20134;-76
2021/01/20 12:15:58;;;;;;;2.35;1.63;;;11.40;79.90;;;;;;4931678;29;20032;-76
2021/01/20 12:18:23;;;;;;;1.63;1.50;;;11.50;79.90;;;;;;4898151;29;20044;-76
2021/01/20 12:20:49;;;;;;;2.38;1.60;;;11.40;79.80;;;;;;4916133;29;20031;-76
2021/01/20 12:23:15;;;;;;;1.30;1.20;;;11.50;79.80;;;;;;4930695;29;20043;-76
2021/01/20 12:25:40;;;;;;;1.58;1.48;;;11.50;79.80;;;;;;4931999;29;20511;-76
2021/01/20 12:28:06;;;;;;;2.20;1.50;;;11.50;79.80;;;;;;4914883;29;20445;-76
2021/01/20 12:30:32;;;;;;;1.58;1.40;;;11.50;79.80;;;;;;4931899;29;20030;-76
2021/01/20 12:32:57;;;;;;;2.10;1.70;;;11.50;79.70;;;;;;4932530;29;20505;-76
2021/01/20 12:35:23;;;;;;;1.60;1.50;;;11.60;79.80;;;;;;4900238;29;20511;-76
2021/01/20 12:37:49;;;;;;;2.33;1.70;;;11.60;79.80;;;;;;4917081;29;20511;-76
2021/01/20 12:40:15;;;;;;;2.63;1.88;;;11.60;80.40;;;;;;4896208;29;20036;-75
2021/01/20 12:42:41;;;;;;;1.75;1.50;;;11.60;79.70;;;;;;4881419;29;20478;-76
2021/01/20 12:45:09;;;;;;;1.98;1.60;;;11.60;79.70;;;;;;4896124;29;20119;-76
2021/01/20 12:47:35;;;;;;;1.90;1.50;;;11.60;79.70;;;;;;4942026;29;20028;-76
2021/01/20 12:50:00;;;;;;;1.92;1.70;;;11.70;79.70;;;;;;4906724;29;20043;-76
2021/01/20 12:52:26;;;;;;;1.73;1.58;;;11.70;79.70;;;;;;4926536;29;20148;-76
2021/01/20 12:54:52;;;;;;;1.58;1.48;;;11.60;79.60;;;;;;4914269;29;20057;-77
2021/01/20 12:57:18;;;;;;;2.35;1.70;;;11.70;79.70;;;;;;4913656;29;20056;-76
2021/01/20 12:59:43;;;;;;;2.17;1.42;;;11.70;79.60;;;;;;4897192;29;20081;-76
2021/01/20 13:02:09;;;;;;;1.77;1.40;;;11.70;79.70;;;;;;4936657;29;20538;-77
2021/01/20 13:04:35;;;;;;;2.45;1.70;;;11.70;79.60;;;;;;4898017;29;20044;-76
2021/01/20 13:07:01;;;;;;;1.85;1.58;;;11.70;79.50;;;;;;4947175;28;20051;-77